Kohat Weather



Kohat's Current Weather

Temprature 24.04o clear sky

clear sky

Rain: 0 %

Min Temprature24.04o
Max Temprature24.04o
Humidity36
Wind Speed2.46 m/h
Sun Rise05:08:34
Sun Set19:13:46
Current Time: 24-May-2022 07:44:05
Lat/Lon: 33.582, 71.4493




Kohat's Geo Location



Kohat's Weather Forecast

Time Overall Temp Min Temp Max Temp Humidity Wind Speed Rain
24-May-2022 (Tue)
08:00:00 clear sky 24.040 24.040 25.910 36 2.46 m/h 0 %
11:00:00 clear sky 25.830 25.830 29.410 33 2.56 m/h 0 %
14:00:00 clear sky 29.580 29.580 32.350 26 1.94 m/h 0 %
17:00:00 clear sky 33.180 33.180 33.180 18 1.82 m/h 0 %
20:00:00 clear sky 29.800 29.800 29.800 22 1.31 m/h 0 %
23:00:00 clear sky 27.930 27.930 27.930 25 0.89 m/h 0 %
25-May-2022 (Wed)
02:00:00 clear sky 26.120 26.120 26.120 29 0.69 m/h 0 %
05:00:00 clear sky 24.450 24.450 24.450 33 0.88 m/h 0 %
08:00:00 clear sky 29.780 29.780 29.780 24 0.63 m/h 0 %
11:00:00 clear sky 34.360 34.360 34.360 19 2.88 m/h 0 %
14:00:00 clear sky 37.010 37.010 37.010 16 3.93 m/h 0 %
17:00:00 clear sky 37.350 37.350 37.350 15 4.18 m/h 0 %
20:00:00 clear sky 32.910 32.910 32.910 19 2.21 m/h 0 %
23:00:00 clear sky 30.640 30.640 30.640 22 1.53 m/h 0 %
26-May-2022 (Thu)
02:00:00 clear sky 28.790 28.790 28.790 25 1.74 m/h 0 %
05:00:00 clear sky 27.180 27.180 27.180 28 1.47 m/h 0 %
08:00:00 clear sky 33.110 33.110 33.110 19 0.3 m/h 0 %
11:00:00 clear sky 37.870 37.870 37.870 13 1.23 m/h 0 %
14:00:00 clear sky 40.730 40.730 40.730 10 2.71 m/h 0 %
17:00:00 clear sky 40.870 40.870 40.870 9 3.62 m/h 0 %
20:00:00 clear sky 35.530 35.530 35.530 13 2.49 m/h 0 %
23:00:00 clear sky 33.190 33.190 33.190 16 2.26 m/h 0 %
27-May-2022 (Fri)
02:00:00 scattered clouds 30.640 30.640 30.640 19 1.53 m/h 0 %
05:00:00 few clouds 28.950 28.950 28.950 20 1.76 m/h 0 %
08:00:00 clear sky 35.230 35.230 35.230 14 0.62 m/h 0 %
11:00:00 clear sky 39.640 39.640 39.640 12 1.11 m/h 0 %
14:00:00 clear sky 42.820 42.820 42.820 9 3.73 m/h 0 %
17:00:00 clear sky 42.760 42.760 42.760 8 3.99 m/h 0 %
20:00:00 few clouds 37.180 37.180 37.180 12 1.42 m/h 0 %
23:00:00 few clouds 34.320 34.320 34.320 15 1.67 m/h 0 %
28-May-2022 (Sat)
02:00:00 clear sky 31.820 31.820 31.820 19 2.86 m/h 0 %
05:00:00 clear sky 29.820 29.820 29.820 20 3.37 m/h 0 %
08:00:00 clear sky 35.030 35.030 35.030 16 6.93 m/h 0 %
11:00:00 clear sky 39.190 39.190 39.190 12 8.4 m/h 0 %
14:00:00 clear sky 41.460 41.460 41.460 10 7.74 m/h 0 %
17:00:00 clear sky 40.940 40.940 40.940 10 5.31 m/h 0 %
20:00:00 scattered clouds 34.950 34.950 34.950 18 1.35 m/h 0 %
23:00:00 scattered clouds 33.410 33.410 33.410 18 3.65 m/h 0 %
29-May-2022 (Sun)
02:00:00 overcast clouds 30.500 30.500 30.500 21 1.55 m/h 0 %
05:00:00 overcast clouds 29.080 29.080 29.080 23 1.87 m/h 0 %

Famous Cities (61)